sensor_id;sensor_type;location;lat;lon;timestamp;P1;durP1;ratioP1;P2;durP2;ratioP2
51556;SDS011;38766;53.194;5.532;2023-04-01T00:00:18;11.23;;;7.82;;
51556;SDS011;38766;53.194;5.532;2023-04-01T00:02:44;10.55;;;7.60;;
51556;SDS011;38766;53.194;5.532;2023-04-01T00:05:10;9.43;;;7.32;;
51556;SDS011;38766;53.194;5.532;2023-04-01T00:07:37;9.88;;;6.50;;
51556;SDS011;38766;53.194;5.532;2023-04-01T00:10:07;10.38;;;6.68;;
51556;SDS011;38766;53.194;5.532;2023-04-01T00:12:34;7.45;;;6.15;;
51556;SDS011;38766;53.194;5.532;2023-04-01T00:15:00;8.57;;;6.20;;
51556;SDS011;38766;53.194;5.532;2023-04-01T00:17:27;9.35;;;6.88;;
51556;SDS011;38766;53.194;5.532;2023-04-01T00:19:54;8.02;;;6.22;;
51556;SDS011;38766;53.194;5.532;2023-04-01T00:22:20;7.78;;;6.22;;
51556;SDS011;38766;53.194;5.532;2023-04-01T00:24:47;8.32;;;6.50;;
51556;SDS011;38766;53.194;5.532;2023-04-01T00:27:13;10.25;;;7.18;;
51556;SDS011;38766;53.194;5.532;2023-04-01T00:29:44;9.23;;;7.10;;
51556;SDS011;38766;53.194;5.532;2023-04-01T00:32:11;9.70;;;7.25;;
51556;SDS011;38766;53.194;5.532;2023-04-01T00:34:38;11.40;;;7.50;;
51556;SDS011;38766;53.194;5.532;2023-04-01T00:37:08;9.15;;;7.38;;
51556;SDS011;38766;53.194;5.532;2023-04-01T00:39:34;8.65;;;6.95;;
51556;SDS011;38766;53.194;5.532;2023-04-01T00:42:02;10.02;;;7.53;;
51556;SDS011;38766;53.194;5.532;2023-04-01T00:44:30;9.95;;;7.35;;
51556;SDS011;38766;53.194;5.532;2023-04-01T00:46:57;9.52;;;7.22;;
51556;SDS011;38766;53.194;5.532;2023-04-01T00:49:24;12.25;;;7.60;;
51556;SDS011;38766;53.194;5.532;2023-04-01T00:51:55;8.35;;;6.63;;
51556;SDS011;38766;53.194;5.532;2023-04-01T00:54:24;10.38;;;7.40;;
51556;SDS011;38766;53.194;5.532;2023-04-01T00:56:53;8.32;;;6.65;;
51556;SDS011;38766;53.194;5.532;2023-04-01T00:59:57;11.45;;;7.60;;
51556;SDS011;38766;53.194;5.532;2023-04-01T01:02:19;13.48;;;7.90;;
51556;SDS011;38766;53.194;5.532;2023-04-01T01:04:46;9.40;;;7.57;;
51556;SDS011;38766;53.194;5.532;2023-04-01T01:12:15;11.93;;;8.52;;
51556;SDS011;38766;53.194;5.532;2023-04-01T01:31:34;9.98;;;7.85;;
51556;SDS011;38766;53.194;5.532;2023-04-01T01:34:12;12.57;;;8.80;;
51556;SDS011;38766;53.194;5.532;2023-04-01T01:37:01;14.02;;;8.73;;
51556;SDS011;38766;53.194;5.532;2023-04-01T01:39:31;11.85;;;8.30;;
51556;SDS011;38766;53.194;5.532;2023-04-01T01:42:01;13.48;;;9.02;;
51556;SDS011;38766;53.194;5.532;2023-04-01T01:44:30;11.60;;;8.45;;
51556;SDS011;38766;53.194;5.532;2023-04-01T01:46:59;12.82;;;8.48;;
51556;SDS011;38766;53.194;5.532;2023-04-01T01:49:26;11.98;;;8.43;;
51556;SDS011;38766;53.194;5.532;2023-04-01T01:51:55;12.48;;;8.77;;
51556;SDS011;38766;53.194;5.532;2023-04-01T01:54:21;12.35;;;8.40;;
51556;SDS011;38766;53.194;5.532;2023-04-01T01:56:48;10.57;;;8.00;;
51556;SDS011;38766;53.194;5.532;2023-04-01T01:59:17;11.25;;;7.93;;
51556;SDS011;38766;53.194;5.532;2023-04-01T02:01:47;14.00;;;8.95;;
51556;SDS011;38766;53.194;5.532;2023-04-01T02:04:15;11.77;;;8.55;;
51556;SDS011;38766;53.194;5.532;2023-04-01T02:06:44;12.05;;;8.52;;
51556;SDS011;38766;53.194;5.532;2023-04-01T02:09:17;10.45;;;8.05;;
51556;SDS011;38766;53.194;5.532;2023-04-01T02:17:26;11.55;;;8.85;;
51556;SDS011;38766;53.194;5.532;2023-04-01T02:20:01;10.43;;;8.45;;
51556;SDS011;38766;53.194;5.532;2023-04-01T02:22:32;11.82;;;8.82;;
51556;SDS011;38766;53.194;5.532;2023-04-01T02:25:02;12.75;;;8.30;;
51556;SDS011;38766;53.194;5.532;2023-04-01T02:27:31;12.38;;;8.55;;
51556;SDS011;38766;53.194;5.532;2023-04-01T02:29:57;12.23;;;9.48;;
51556;SDS011;38766;53.194;5.532;2023-04-01T02:32:23;13.93;;;9.95;;
51556;SDS011;38766;53.194;5.532;2023-04-01T02:34:52;12.60;;;9.60;;
51556;SDS011;38766;53.194;5.532;2023-04-01T02:37:18;14.68;;;9.93;;
51556;SDS011;38766;53.194;5.532;2023-04-01T02:39:44;12.52;;;9.32;;
51556;SDS011;38766;53.194;5.532;2023-04-01T02:42:10;13.05;;;9.90;;
51556;SDS011;38766;53.194;5.532;2023-04-01T02:44:36;13.48;;;9.75;;
51556;SDS011;38766;53.194;5.532;2023-04-01T02:47:02;12.93;;;9.57;;
51556;SDS011;38766;53.194;5.532;2023-04-01T02:49:28;12.88;;;8.68;;
51556;SDS011;38766;53.194;5.532;2023-04-01T02:51:53;14.15;;;10.82;;
51556;SDS011;38766;53.194;5.532;2023-04-01T02:54:19;14.32;;;9.95;;
51556;SDS011;38766;53.194;5.532;2023-04-01T02:56:45;16.58;;;11.18;;
51556;SDS011;38766;53.194;5.532;2023-04-01T02:59:11;15.40;;;9.90;;
51556;SDS011;38766;53.194;5.532;2023-04-01T03:01:37;14.65;;;10.80;;
51556;SDS011;38766;53.194;5.532;2023-04-01T03:04:03;14.00;;;10.48;;
51556;SDS011;38766;53.194;5.532;2023-04-01T03:06:29;14.98;;;10.85;;
51556;SDS011;38766;53.194;5.532;2023-04-01T03:08:55;16.60;;;10.93;;
51556;SDS011;38766;53.194;5.532;2023-04-01T03:11:21;15.90;;;11.13;;
51556;SDS011;38766;53.194;5.532;2023-04-01T03:13:46;17.13;;;11.23;;
51556;SDS011;38766;53.194;5.532;2023-04-01T03:16:13;14.77;;;11.18;;
51556;SDS011;38766;53.194;5.532;2023-04-01T03:18:40;16.67;;;10.88;;
51556;SDS011;38766;53.194;5.532;2023-04-01T03:21:19;13.52;;;10.60;;
51556;SDS011;38766;53.194;5.532;2023-04-01T03:23:46;16.30;;;11.52;;
51556;SDS011;38766;53.194;5.532;2023-04-01T03:26:13;16.30;;;11.30;;
51556;SDS011;38766;53.194;5.532;2023-04-01T03:28:39;13.18;;;9.95;;
51556;SDS011;38766;53.194;5.532;2023-04-01T03:31:05;16.42;;;10.30;;
51556;SDS011;38766;53.194;5.532;2023-04-01T03:33:31;15.55;;;10.57;;
51556;SDS011;38766;53.194;5.532;2023-04-01T03:35:57;13.95;;;9.85;;
51556;SDS011;38766;53.194;5.532;2023-04-01T03:38:23;14.32;;;9.82;;
51556;SDS011;38766;53.194;5.532;2023-04-01T03:40:48;13.50;;;10.48;;
51556;SDS011;38766;53.194;5.532;2023-04-01T03:43:14;15.13;;;10.13;;
51556;SDS011;38766;53.194;5.532;2023-04-01T03:45:48;12.77;;;9.50;;
51556;SDS011;38766;53.194;5.532;2023-04-01T03:48:15;14.40;;;10.18;;
51556;SDS011;38766;53.194;5.532;2023-04-01T03:50:41;14.63;;;9.93;;
51556;SDS011;38766;53.194;5.532;2023-04-01T03:53:07;12.43;;;9.77;;
51556;SDS011;38766;53.194;5.532;2023-04-01T03:55:35;12.68;;;9.68;;
51556;SDS011;38766;53.194;5.532;2023-04-01T03:58:01;12.95;;;9.77;;
51556;SDS011;38766;53.194;5.532;2023-04-01T04:00:28;13.77;;;9.73;;
51556;SDS011;38766;53.194;5.532;2023-04-01T04:02:55;14.90;;;10.63;;
51556;SDS011;38766;53.194;5.532;2023-04-01T04:05:22;15.82;;;10.70;;
51556;SDS011;38766;53.194;5.532;2023-04-01T04:07:48;15.95;;;11.07;;
51556;SDS011;38766;53.194;5.532;2023-04-01T04:10:14;12.77;;;9.85;;
51556;SDS011;38766;53.194;5.532;2023-04-01T04:12:40;15.48;;;10.32;;
51556;SDS011;38766;53.194;5.532;2023-04-01T04:15:06;14.88;;;10.50;;
51556;SDS011;38766;53.194;5.532;2023-04-01T04:17:32;16.75;;;10.45;;
51556;SDS011;38766;53.194;5.532;2023-04-01T04:19:58;15.68;;;10.82;;
51556;SDS011;38766;53.194;5.532;2023-04-01T04:22:23;14.85;;;9.98;;
51556;SDS011;38766;53.194;5.532;2023-04-01T04:24:49;12.95;;;9.07;;
51556;SDS011;38766;53.194;5.532;2023-04-01T04:27:15;11.98;;;8.50;;
51556;SDS011;38766;53.194;5.532;2023-04-01T04:29:40;11.07;;;7.53;;
51556;SDS011;38766;53.194;5.532;2023-04-01T04:32:06;12.02;;;8.25;;
51556;SDS011;38766;53.194;5.532;2023-04-01T04:34:32;13.90;;;8.45;;
51556;SDS011;38766;53.194;5.532;2023-04-01T04:36:58;16.80;;;8.57;;
51556;SDS011;38766;53.194;5.532;2023-04-01T04:39:23;14.25;;;9.88;;
51556;SDS011;38766;53.194;5.532;2023-04-01T04:41:49;16.80;;;9.18;;
51556;SDS011;38766;53.194;5.532;2023-04-01T04:44:15;15.75;;;10.90;;
51556;SDS011;38766;53.194;5.532;2023-04-01T04:46:41;17.48;;;12.15;;
51556;SDS011;38766;53.194;5.532;2023-04-01T04:49:06;19.90;;;11.98;;
51556;SDS011;38766;53.194;5.532;2023-04-01T04:51:32;22.70;;;12.90;;
51556;SDS011;38766;53.194;5.532;2023-04-01T04:54:00;17.75;;;12.10;;
51556;SDS011;38766;53.194;5.532;2023-04-01T04:56:30;17.63;;;12.00;;
51556;SDS011;38766;53.194;5.532;2023-04-01T04:58:56;21.20;;;13.35;;
51556;SDS011;38766;53.194;5.532;2023-04-01T05:01:22;21.02;;;13.73;;
51556;SDS011;38766;53.194;5.532;2023-04-01T05:03:47;20.10;;;12.57;;
51556;SDS011;38766;53.194;5.532;2023-04-01T05:06:14;19.92;;;12.65;;
51556;SDS011;38766;53.194;5.532;2023-04-01T05:08:40;20.27;;;12.13;;
51556;SDS011;38766;53.194;5.532;2023-04-01T05:11:09;23.05;;;12.75;;
51556;SDS011;38766;53.194;5.532;2023-04-01T05:13:37;16.08;;;11.45;;
51556;SDS011;38766;53.194;5.532;2023-04-01T05:16:02;19.48;;;12.57;;
51556;SDS011;38766;53.194;5.532;2023-04-01T05:18:28;16.40;;;12.02;;
51556;SDS011;38766;53.194;5.532;2023-04-01T05:20:54;19.95;;;12.85;;
51556;SDS011;38766;53.194;5.532;2023-04-01T05:23:21;20.48;;;13.07;;
51556;SDS011;38766;53.194;5.532;2023-04-01T05:25:48;18.30;;;12.57;;
51556;SDS011;38766;53.194;5.532;2023-04-01T05:28:14;20.02;;;12.90;;
51556;SDS011;38766;53.194;5.532;2023-04-01T05:30:40;23.48;;;14.80;;
51556;SDS011;38766;53.194;5.532;2023-04-01T05:33:07;22.40;;;14.00;;
51556;SDS011;38766;53.194;5.532;2023-04-01T05:35:34;21.73;;;15.05;;
51556;SDS011;38766;53.194;5.532;2023-04-01T05:38:00;23.02;;;14.40;;
51556;SDS011;38766;53.194;5.532;2023-04-01T05:40:27;26.02;;;14.52;;
51556;SDS011;38766;53.194;5.532;2023-04-01T05:42:53;28.33;;;16.15;;
51556;SDS011;38766;53.194;5.532;2023-04-01T05:45:19;25.92;;;15.77;;
51556;SDS011;38766;53.194;5.532;2023-04-01T05:47:45;31.10;;;14.85;;
51556;SDS011;38766;53.194;5.532;2023-04-01T05:50:10;29.10;;;14.85;;
51556;SDS011;38766;53.194;5.532;2023-04-01T05:52:37;29.50;;;15.88;;
51556;SDS011;38766;53.194;5.532;2023-04-01T05:55:03;32.85;;;15.32;;
51556;SDS011;38766;53.194;5.532;2023-04-01T05:57:30;29.52;;;15.10;;
51556;SDS011;38766;53.194;5.532;2023-04-01T05:59:56;25.08;;;15.63;;
51556;SDS011;38766;53.194;5.532;2023-04-01T06:02:22;27.95;;;16.83;;
51556;SDS011;38766;53.194;5.532;2023-04-01T06:04:48;33.00;;;16.75;;
51556;SDS011;38766;53.194;5.532;2023-04-01T06:07:15;28.92;;;15.32;;
51556;SDS011;38766;53.194;5.532;2023-04-01T06:09:42;28.52;;;15.60;;
51556;SDS011;38766;53.194;5.532;2023-04-01T06:17:37;29.48;;;15.93;;
51556;SDS011;38766;53.194;5.532;2023-04-01T06:20:39;34.03;;;15.90;;
51556;SDS011;38766;53.194;5.532;2023-04-01T06:48:28;33.92;;;16.83;;
51556;SDS011;38766;53.194;5.532;2023-04-01T06:53:50;30.30;;;15.88;;
51556;SDS011;38766;53.194;5.532;2023-04-01T06:56:21;26.25;;;15.02;;
51556;SDS011;38766;53.194;5.532;2023-04-01T06:58:52;27.50;;;14.38;;
51556;SDS011;38766;53.194;5.532;2023-04-01T07:01:30;28.55;;;15.05;;
51556;SDS011;38766;53.194;5.532;2023-04-01T07:04:06;32.45;;;16.13;;
51556;SDS011;38766;53.194;5.532;2023-04-01T07:06:39;28.67;;;16.48;;
51556;SDS011;38766;53.194;5.532;2023-04-01T07:09:13;36.40;;;16.93;;
51556;SDS011;38766;53.194;5.532;2023-04-01T07:11:43;34.53;;;17.50;;
51556;SDS011;38766;53.194;5.532;2023-04-01T07:16:56;30.30;;;14.88;;
51556;SDS011;38766;53.194;5.532;2023-04-01T07:19:42;27.27;;;14.07;;
51556;SDS011;38766;53.194;5.532;2023-04-01T07:22:27;28.77;;;13.93;;
51556;SDS011;38766;53.194;5.532;2023-04-01T07:24:59;34.83;;;14.65;;
51556;SDS011;38766;53.194;5.532;2023-04-01T07:27:28;36.58;;;15.45;;
51556;SDS011;38766;53.194;5.532;2023-04-01T07:29:55;40.30;;;17.63;;
51556;SDS011;38766;53.194;5.532;2023-04-01T07:32:26;48.88;;;18.75;;
51556;SDS011;38766;53.194;5.532;2023-04-01T07:35:21;51.45;;;21.05;;
51556;SDS011;38766;53.194;5.532;2023-04-01T07:38:00;53.20;;;21.60;;
51556;SDS011;38766;53.194;5.532;2023-04-01T07:43:44;46.70;;;19.92;;
51556;SDS011;38766;53.194;5.532;2023-04-01T07:48:55;42.42;;;18.17;;
51556;SDS011;38766;53.194;5.532;2023-04-01T07:51:31;48.63;;;18.58;;
51556;SDS011;38766;53.194;5.532;2023-04-01T07:54:11;35.47;;;16.77;;
51556;SDS011;38766;53.194;5.532;2023-04-01T07:59:29;30.73;;;15.00;;
51556;SDS011;38766;53.194;5.532;2023-04-01T08:05:03;30.08;;;15.13;;
51556;SDS011;38766;53.194;5.532;2023-04-01T08:15:21;29.52;;;14.48;;
51556;SDS011;38766;53.194;5.532;2023-04-01T08:25:44;29.83;;;14.82;;
51556;SDS011;38766;53.194;5.532;2023-04-01T08:30:55;25.42;;;12.60;;
51556;SDS011;38766;53.194;5.532;2023-04-01T08:33:27;23.42;;;11.18;;
51556;SDS011;38766;53.194;5.532;2023-04-01T08:35:57;19.42;;;10.13;;
51556;SDS011;38766;53.194;5.532;2023-04-01T08:38:33;19.50;;;8.40;;
51556;SDS011;38766;53.194;5.532;2023-04-01T08:44:11;15.43;;;7.00;;
51556;SDS011;38766;53.194;5.532;2023-04-01T08:52:26;11.35;;;4.85;;
51556;SDS011;38766;53.194;5.532;2023-04-01T09:06:07;11.00;;;3.90;;
51556;SDS011;38766;53.194;5.532;2023-04-01T09:09:21;12.45;;;3.67;;
51556;SDS011;38766;53.194;5.532;2023-04-01T09:14:09;8.02;;;3.95;;
51556;SDS011;38766;53.194;5.532;2023-04-01T09:22:22;7.03;;;3.00;;
51556;SDS011;38766;53.194;5.532;2023-04-01T09:29:57;9.45;;;3.80;;
51556;SDS011;38766;53.194;5.532;2023-04-01T09:43:27;9.75;;;3.72;;
51556;SDS011;38766;53.194;5.532;2023-04-01T09:48:44;10.27;;;3.40;;
51556;SDS011;38766;53.194;5.532;2023-04-01T10:14:07;8.48;;;3.47;;
51556;SDS011;38766;53.194;5.532;2023-04-01T10:19:59;11.02;;;3.58;;
51556;SDS011;38766;53.194;5.532;2023-04-01T10:23:01;11.63;;;3.70;;
51556;SDS011;38766;53.194;5.532;2023-04-01T10:28:37;7.05;;;2.92;;
51556;SDS011;38766;53.194;5.532;2023-04-01T10:40:03;5.05;;;2.63;;
51556;SDS011;38766;53.194;5.532;2023-04-01T10:46:11;7.43;;;2.88;;
51556;SDS011;38766;53.194;5.532;2023-04-01T10:57:15;8.48;;;3.30;;
51556;SDS011;38766;53.194;5.532;2023-04-01T11:00:06;9.88;;;3.00;;
51556;SDS011;38766;53.194;5.532;2023-04-01T11:31:02;5.95;;;2.88;;
51556;SDS011;38766;53.194;5.532;2023-04-01T11:41:49;8.90;;;2.40;;
51556;SDS011;38766;53.194;5.532;2023-04-01T11:44:26;12.13;;;3.25;;
51556;SDS011;38766;53.194;5.532;2023-04-01T11:50:15;5.43;;;2.20;;
51556;SDS011;38766;53.194;5.532;2023-04-01T12:07:00;6.03;;;2.33;;
51556;SDS011;38766;53.194;5.532;2023-04-01T12:09:49;3.65;;;2.53;;
51556;SDS011;38766;53.194;5.532;2023-04-01T12:12:48;5.40;;;2.70;;
51556;SDS011;38766;53.194;5.532;2023-04-01T12:18:17;6.07;;;2.20;;
51556;SDS011;38766;53.194;5.532;2023-04-01T12:34:49;6.10;;;2.60;;
51556;SDS011;38766;53.194;5.532;2023-04-01T13:05:23;3.92;;;2.25;;
51556;SDS011;38766;53.194;5.532;2023-04-01T13:08:11;3.90;;;2.40;;
51556;SDS011;38766;53.194;5.532;2023-04-01T13:16:42;6.35;;;2.10;;
51556;SDS011;38766;53.194;5.532;2023-04-01T13:19:38;4.82;;;2.13;;
51556;SDS011;38766;53.194;5.532;2023-04-01T13:25:00;4.53;;;2.33;;
51556;SDS011;38766;53.194;5.532;2023-04-01T13:27:40;5.97;;;2.08;;
51556;SDS011;38766;53.194;5.532;2023-04-01T13:33:01;4.15;;;2.20;;
51556;SDS011;38766;53.194;5.532;2023-04-01T13:36:01;6.55;;;2.47;;
51556;SDS011;38766;53.194;5.532;2023-04-01T13:38:44;6.72;;;2.20;;
51556;SDS011;38766;53.194;5.532;2023-04-01T13:41:21;5.90;;;2.88;;
51556;SDS011;38766;53.194;5.532;2023-04-01T13:44:09;3.90;;;2.40;;
51556;SDS011;38766;53.194;5.532;2023-04-01T13:47:04;5.68;;;2.50;;
51556;SDS011;38766;53.194;5.532;2023-04-01T13:52:45;5.50;;;2.42;;
51556;SDS011;38766;53.194;5.532;2023-04-01T14:03:13;7.75;;;2.28;;
51556;SDS011;38766;53.194;5.532;2023-04-01T14:08:55;2.53;;;1.95;;
51556;SDS011;38766;53.194;5.532;2023-04-01T14:31:23;6.63;;;2.38;;
51556;SDS011;38766;53.194;5.532;2023-04-01T14:39:57;11.88;;;3.83;;
51556;SDS011;38766;53.194;5.532;2023-04-01T14:53:37;10.63;;;3.30;;
51556;SDS011;38766;53.194;5.532;2023-04-01T14:56:10;16.50;;;4.35;;
51556;SDS011;38766;53.194;5.532;2023-04-01T14:58:43;18.23;;;4.95;;
51556;SDS011;38766;53.194;5.532;2023-04-01T15:01:25;12.35;;;4.05;;
51556;SDS011;38766;53.194;5.532;2023-04-01T15:20:33;16.30;;;4.65;;
51556;SDS011;38766;53.194;5.532;2023-04-01T15:31:09;15.10;;;4.75;;
51556;SDS011;38766;53.194;5.532;2023-04-01T15:36:33;16.13;;;5.22;;
51556;SDS011;38766;53.194;5.532;2023-04-01T15:42:01;16.20;;;5.80;;
51556;SDS011;38766;53.194;5.532;2023-04-01T15:44:37;17.50;;;4.70;;
51556;SDS011;38766;53.194;5.532;2023-04-01T15:50:37;12.52;;;4.80;;
51556;SDS011;38766;53.194;5.532;2023-04-01T15:52:49;11.75;;;4.72;;
51556;SDS011;38766;53.194;5.532;2023-04-01T15:55:31;11.82;;;4.75;;
51556;SDS011;38766;53.194;5.532;2023-04-01T15:58:22;13.93;;;5.13;;
51556;SDS011;38766;53.194;5.532;2023-04-01T16:04:18;17.27;;;5.47;;
51556;SDS011;38766;53.194;5.532;2023-04-01T16:09:56;11.85;;;4.80;;
51556;SDS011;38766;53.194;5.532;2023-04-01T16:27:00;14.02;;;5.05;;
51556;SDS011;38766;53.194;5.532;2023-04-01T16:29:49;15.55;;;5.50;;
51556;SDS011;38766;53.194;5.532;2023-04-01T16:35:04;17.98;;;6.22;;
51556;SDS011;38766;53.194;5.532;2023-04-01T16:37:56;15.00;;;5.20;;
51556;SDS011;38766;53.194;5.532;2023-04-01T16:40:37;15.23;;;5.55;;
51556;SDS011;38766;53.194;5.532;2023-04-01T16:45:45;19.05;;;4.90;;
51556;SDS011;38766;53.194;5.532;2023-04-01T16:48:35;12.48;;;5.25;;
51556;SDS011;38766;53.194;5.532;2023-04-01T16:51:15;12.18;;;5.05;;
51556;SDS011;38766;53.194;5.532;2023-04-01T16:54:03;14.30;;;5.75;;
51556;SDS011;38766;53.194;5.532;2023-04-01T16:56:45;15.50;;;6.22;;
51556;SDS011;38766;53.194;5.532;2023-04-01T16:59:34;15.18;;;5.55;;
51556;SDS011;38766;53.194;5.532;2023-04-01T17:02:10;15.68;;;5.55;;
51556;SDS011;38766;53.194;5.532;2023-04-01T17:04:57;12.68;;;5.38;;
51556;SDS011;38766;53.194;5.532;2023-04-01T17:07:38;12.57;;;6.13;;
51556;SDS011;38766;53.194;5.532;2023-04-01T17:13:03;16.17;;;6.32;;
51556;SDS011;38766;53.194;5.532;2023-04-01T17:15:51;16.25;;;5.18;;
51556;SDS011;38766;53.194;5.532;2023-04-01T17:24:00;13.18;;;6.22;;
51556;SDS011;38766;53.194;5.532;2023-04-01T17:37:27;12.40;;;5.47;;
51556;SDS011;38766;53.194;5.532;2023-04-01T17:43:02;12.70;;;5.25;;
51556;SDS011;38766;53.194;5.532;2023-04-01T17:57:54;17.10;;;6.05;;
51556;SDS011;38766;53.194;5.532;2023-04-01T18:14:47;9.80;;;4.88;;
51556;SDS011;38766;53.194;5.532;2023-04-01T18:29:01;15.00;;;5.80;;
51556;SDS011;38766;53.194;5.532;2023-04-01T18:31:38;30.65;;;18.25;;
51556;SDS011;38766;53.194;5.532;2023-04-01T18:34:18;16.70;;;7.40;;
51556;SDS011;38766;53.194;5.532;2023-04-01T18:37:16;14.88;;;7.43;;
51556;SDS011;38766;53.194;5.532;2023-04-01T18:39:48;14.02;;;5.43;;
51556;SDS011;38766;53.194;5.532;2023-04-01T18:44:51;11.15;;;6.15;;
51556;SDS011;38766;53.194;5.532;2023-04-01T18:52:59;13.75;;;7.72;;
51556;SDS011;38766;53.194;5.532;2023-04-01T18:56:04;15.80;;;8.13;;
51556;SDS011;38766;53.194;5.532;2023-04-01T18:58:37;17.50;;;8.65;;
51556;SDS011;38766;53.194;5.532;2023-04-01T19:04:09;16.35;;;7.30;;
51556;SDS011;38766;53.194;5.532;2023-04-01T19:06:49;12.68;;;6.72;;
51556;SDS011;38766;53.194;5.532;2023-04-01T19:09:19;12.35;;;7.82;;
51556;SDS011;38766;53.194;5.532;2023-04-01T19:14:59;10.13;;;5.90;;
51556;SDS011;38766;53.194;5.532;2023-04-01T19:20:37;13.77;;;6.18;;
51556;SDS011;38766;53.194;5.532;2023-04-01T19:23:16;10.00;;;5.15;;
51556;SDS011;38766;53.194;5.532;2023-04-01T19:25:59;10.20;;;5.47;;
51556;SDS011;38766;53.194;5.532;2023-04-01T19:31:14;16.85;;;5.97;;
51556;SDS011;38766;53.194;5.532;2023-04-01T19:36:58;11.43;;;5.82;;
51556;SDS011;38766;53.194;5.532;2023-04-01T19:39:48;16.75;;;6.07;;
51556;SDS011;38766;53.194;5.532;2023-04-01T19:53:33;20.90;;;6.93;;
51556;SDS011;38766;53.194;5.532;2023-04-01T19:56:25;15.15;;;5.60;;
51556;SDS011;38766;53.194;5.532;2023-04-01T19:59:31;14.85;;;5.53;;
51556;SDS011;38766;53.194;5.532;2023-04-01T20:04:49;16.42;;;6.32;;
51556;SDS011;38766;53.194;5.532;2023-04-01T20:07:22;18.38;;;6.53;;
51556;SDS011;38766;53.194;5.532;2023-04-01T20:12:38;15.32;;;7.15;;
51556;SDS011;38766;53.194;5.532;2023-04-01T20:16:13;19.42;;;7.55;;
51556;SDS011;38766;53.194;5.532;2023-04-01T20:18:23;17.10;;;6.07;;
51556;SDS011;38766;53.194;5.532;2023-04-01T20:20:57;13.45;;;6.22;;
51556;SDS011;38766;53.194;5.532;2023-04-01T20:26:13;14.90;;;5.63;;
51556;SDS011;38766;53.194;5.532;2023-04-01T20:28:46;18.98;;;5.55;;
51556;SDS011;38766;53.194;5.532;2023-04-01T20:41:54;12.18;;;5.35;;
51556;SDS011;38766;53.194;5.532;2023-04-01T20:53:10;11.20;;;4.88;;
51556;SDS011;38766;53.194;5.532;2023-04-01T21:06:20;12.45;;;4.90;;
51556;SDS011;38766;53.194;5.532;2023-04-01T21:17:08;14.02;;;4.20;;
51556;SDS011;38766;53.194;5.532;2023-04-01T21:36:52;12.82;;;3.88;;
51556;SDS011;38766;53.194;5.532;2023-04-01T21:47:47;12.65;;;4.20;;
51556;SDS011;38766;53.194;5.532;2023-04-01T22:02:00;10.25;;;3.95;;
51556;SDS011;38766;53.194;5.532;2023-04-01T22:07:45;10.00;;;3.60;;
51556;SDS011;38766;53.194;5.532;2023-04-01T22:13:07;13.70;;;3.65;;
51556;SDS011;38766;53.194;5.532;2023-04-01T22:18:42;11.02;;;3.40;;
51556;SDS011;38766;53.194;5.532;2023-04-01T22:21:22;10.77;;;4.28;;
51556;SDS011;38766;53.194;5.532;2023-04-01T22:24:07;14.15;;;4.03;;
51556;SDS011;38766;53.194;5.532;2023-04-01T22:29:56;9.15;;;3.58;;
51556;SDS011;38766;53.194;5.532;2023-04-01T22:32:47;7.55;;;3.25;;
51556;SDS011;38766;53.194;5.532;2023-04-01T22:35:36;11.57;;;3.83;;
51556;SDS011;38766;53.194;5.532;2023-04-01T22:40:55;13.50;;;4.10;;
51556;SDS011;38766;53.194;5.532;2023-04-01T22:53:59;13.15;;;4.03;;
51556;SDS011;38766;53.194;5.532;2023-04-01T22:56:56;10.30;;;3.63;;
51556;SDS011;38766;53.194;5.532;2023-04-01T23:04:42;10.85;;;3.40;;
51556;SDS011;38766;53.194;5.532;2023-04-01T23:07:19;7.60;;;3.70;;
51556;SDS011;38766;53.194;5.532;2023-04-01T23:10:22;6.22;;;3.03;;
51556;SDS011;38766;53.194;5.532;2023-04-01T23:13:02;7.70;;;3.38;;
51556;SDS011;38766;53.194;5.532;2023-04-01T23:15:30;9.65;;;3.53;;
51556;SDS011;38766;53.194;5.532;2023-04-01T23:26:23;8.85;;;2.97;;
51556;SDS011;38766;53.194;5.532;2023-04-01T23:29:12;9.60;;;3.38;;
51556;SDS011;38766;53.194;5.532;2023-04-01T23:31:46;6.85;;;3.22;;
51556;SDS011;38766;53.194;5.532;2023-04-01T23:39:25;6.80;;;3.00;;
51556;SDS011;38766;53.194;5.532;2023-04-01T23:42:04;8.63;;;3.15;;
51556;SDS011;38766;53.194;5.532;2023-04-01T23:44:40;8.68;;;3.08;;
51556;SDS011;38766;53.194;5.532;2023-04-01T23:47:08;10.05;;;3.25;;
51556;SDS011;38766;53.194;5.532;2023-04-01T23:49:44;7.82;;;3.28;;
51556;SDS011;38766;53.194;5.532;2023-04-01T23:52:20;9.25;;;2.95;;
51556;SDS011;38766;53.194;5.532;2023-04-01T23:54:49;7.80;;;2.83;;
51556;SDS011;38766;53.194;5.532;2023-04-01T23:57:21;6.93;;;3.10;;
